Time;durP1;ratioP1;P1;durP2;ratioP2;P2;SDS_P1;SDS_P2;PMS_P1;PMS_P2;Temp;Humidity;BMP_temperature;BMP_pressure;BME280_temperature;BME280_humidity;BME280_pressure;Samples;Min_cycle;Max_cycle;Signal;HPM_P1;HPM_P2
2021/12/10 00:01:12;;;;;;;98.50;47.50;;;;;;;-1.28;100.00;97704.70;103291;1311;72390;-74
2021/12/10 00:03:52;;;;;;;96.60;49.10;;;;;;;-1.27;100.00;97705.35;104183;1310;61279;-74
2021/12/10 00:06:21;;;;;;;96.10;48.80;;;;;;;-1.26;100.00;97703.91;105139;1317;61192;-73
2021/12/10 00:08:57;;;;;;;94.80;48.50;;;;;;;-1.26;100.00;97703.04;104958;1310;75562;-73
2021/12/10 00:11:31;;;;;;;94.60;46.40;;;;;;;-1.24;100.00;97702.78;105298;1317;67562;-74
2021/12/10 00:13:59;;;;;;;90.90;46.60;;;;;;;-1.22;100.00;97707.78;104401;1316;72090;-74
2021/12/10 00:16:28;;;;;;;98.00;48.20;;;;;;;-1.23;100.00;97706.25;102474;1311;61346;-74
2021/12/10 00:19:07;;;;;;;96.40;48.00;;;;;;;-1.26;100.00;97697.81;102605;1314;61329;-75
2021/12/10 00:21:34;;;;;;;97.20;47.00;;;;;;;-1.28;100.00;97698.25;102563;1310;74411;-75
2021/12/10 00:24:02;;;;;;;98.60;48.80;;;;;;;-1.25;100.00;97691.28;102492;1310;69268;-73
2021/12/10 00:26:29;;;;;;;100.60;47.50;;;;;;;-1.23;100.00;97684.64;102063;1310;73219;-73
2021/12/10 00:29:02;;;;;;;99.70;53.20;;;;;;;-1.24;100.00;97670.20;102417;1310;61379;-74
2021/12/10 00:34:11;;;;;;;96.50;48.60;;;;;;;-1.30;100.00;97666.80;102357;1310;74710;-75
2021/12/10 00:36:38;;;;;;;102.00;49.50;;;;;;;-1.29;100.00;97661.01;102421;1314;68956;-73
2021/12/10 00:39:12;;;;;;;97.50;50.70;;;;;;;-1.28;100.00;97663.02;102420;1311;73664;-76
2021/12/10 00:41:39;;;;;;;98.10;49.60;;;;;;;-1.27;100.00;97665.42;102379;1314;61344;-73
2021/12/10 00:44:07;;;;;;;97.70;49.10;;;;;;;-1.26;100.00;97676.53;102383;1314;61382;-74
2021/12/10 00:46:33;;;;;;;94.00;49.40;;;;;;;-1.28;100.00;97680.09;102331;1311;76518;-73
2021/12/10 00:49:00;;;;;;;96.60;48.60;;;;;;;-1.32;100.00;97683.92;102466;1314;70428;-74
2021/12/10 00:51:26;;;;;;;94.50;48.10;;;;;;;-1.34;100.00;97692.20;102442;1311;73510;-73
2021/12/10 00:53:53;;;;;;;96.80;48.90;;;;;;;-1.35;100.00;97698.16;102014;1313;61319;-74
2021/12/10 00:56:21;;;;;;;100.10;51.30;;;;;;;-1.36;100.00;97681.47;102381;1314;61379;-74
2021/12/10 00:58:48;;;;;;;111.50;57.60;;;;;;;-1.38;100.00;97676.14;102403;1313;75225;-75
2021/12/10 01:01:24;;;;;;;111.40;59.50;;;;;;;-1.37;100.00;97678.91;102299;1316;70860;-76
2021/12/10 01:03:56;;;;;;;117.00;60.00;;;;;;;-1.38;100.00;97676.52;102422;1314;73520;-74
2021/12/10 01:06:25;;;;;;;116.60;61.00;;;;;;;-1.38;100.00;97678.24;102379;1314;61332;-74
2021/12/10 01:08:58;;;;;;;113.20;62.00;;;;;;;-1.34;100.00;97674.58;102393;1310;61193;-74
2021/12/10 01:11:30;;;;;;;115.00;63.30;;;;;;;-1.31;100.00;97673.09;102361;1314;76432;-73
2021/12/10 01:14:09;;;;;;;108.30;62.20;;;;;;;-1.32;100.00;97679.96;102147;1317;68839;-74
2021/12/10 01:27:33;;;;;;;108.00;54.50;;;;;;;-1.36;100.00;97672.09;102528;1314;70433;-75
2021/12/10 01:30:24;;;;;;;98.70;53.80;;;;;;;-1.37;100.00;97672.11;102617;1311;72802;-72
2021/12/10 01:32:59;;;;;;;105.30;52.90;;;;;;;-1.39;100.00;97680.02;102389;1311;61304;-74
2021/12/10 01:35:30;;;;;;;112.30;55.80;;;;;;;-1.38;100.00;97670.25;102427;1314;61295;-72
2021/12/10 01:37:58;;;;;;;106.80;55.10;;;;;;;-1.38;100.00;97672.14;102448;1314;75582;-75
2021/12/10 01:40:26;;;;;;;95.60;53.80;;;;;;;-1.36;100.00;97675.72;102676;1313;69724;-74
2021/12/10 01:43:05;;;;;;;108.50;53.90;;;;;;;-1.36;100.00;97673.81;102447;1313;73284;-74
2021/12/10 01:45:44;;;;;;;97.40;51.30;;;;;;;-1.35;100.00;97671.87;102101;1314;61428;-75
2021/12/10 01:48:18;;;;;;;104.00;50.30;;;;;;;-1.34;100.00;97672.17;102401;1310;62144;-74
2021/12/10 01:50:46;;;;;;;98.10;52.70;;;;;;;-1.33;100.00;97669.52;102329;1311;76667;-74
2021/12/10 01:53:17;;;;;;;97.20;50.80;;;;;;;-1.33;100.00;97666.02;102358;1310;69462;-75
2021/12/10 01:55:47;;;;;;;95.80;48.40;;;;;;;-1.32;100.00;97667.89;102347;1310;74369;-74
2021/12/10 01:58:18;;;;;;;101.00;49.30;;;;;;;-1.30;100.00;97663.30;102426;1310;61290;-74
2021/12/10 02:00:50;;;;;;;95.30;49.00;;;;;;;-1.24;100.00;97664.41;102342;1311;61263;-74
2021/12/10 02:03:17;;;;;;;90.10;48.50;;;;;;;-1.19;100.00;97670.86;102360;1314;75294;-74
2021/12/10 02:05:44;;;;;;;95.20;49.30;;;;;;;-1.21;100.00;97670.25;102223;1316;69644;-74
2021/12/10 02:08:11;;;;;;;94.70;50.40;;;;;;;-1.23;100.00;97667.70;102411;1313;73380;-76
2021/12/10 02:10:38;;;;;;;95.90;50.80;;;;;;;-1.23;100.00;97667.89;101962;1314;61467;-73
2021/12/10 02:13:05;;;;;;;95.40;50.50;;;;;;;-1.22;100.00;97668.89;102395;1310;61238;-72
2021/12/10 02:15:33;;;;;;;98.90;52.40;;;;;;;-1.23;100.00;97665.96;102366;1311;75683;-74
2021/12/10 02:18:02;;;;;;;92.60;47.80;;;;;;;-1.22;100.00;97659.84;102364;1310;70370;-74
2021/12/10 02:20:36;;;;;;;88.80;48.20;;;;;;;-1.24;100.00;97662.02;102541;1311;73450;-74
2021/12/10 02:23:06;;;;;;;96.30;48.10;;;;;;;-1.26;100.00;97659.30;102385;1311;61394;-75
2021/12/10 02:25:38;;;;;;;99.30;52.40;;;;;;;-1.26;100.00;97649.17;102469;1311;62244;-75
2021/12/10 02:28:10;;;;;;;103.00;55.90;;;;;;;-1.22;100.00;97641.73;102366;1310;76387;-75
2021/12/10 02:30:39;;;;;;;107.90;57.00;;;;;;;-1.16;100.00;97645.11;102323;1311;70428;-76
2021/12/10 02:33:07;;;;;;;108.70;58.10;;;;;;;-1.12;100.00;97648.10;102464;1314;73478;-75
2021/12/10 02:35:34;;;;;;;99.90;53.80;;;;;;;-1.14;100.00;97648.69;102242;1313;61505;-73
2021/12/10 02:38:02;;;;;;;105.00;54.90;;;;;;;-1.17;100.00;97634.52;102421;1311;61206;-75
2021/12/10 02:40:31;;;;;;;106.80;57.30;;;;;;;-1.18;100.00;97624.66;102399;1310;76267;-74
2021/12/10 02:43:00;;;;;;;109.70;57.80;;;;;;;-1.20;100.00;97623.17;102456;1311;70657;-72
2021/12/10 02:45:27;;;;;;;105.60;57.10;;;;;;;-1.22;100.00;97623.25;102413;1311;74446;-74
2021/12/10 02:47:55;;;;;;;101.30;54.90;;;;;;;-1.25;100.00;97624.40;102385;1313;61431;-74
2021/12/10 02:50:27;;;;;;;112.30;62.40;;;;;;;-1.26;100.00;97622.20;102443;1314;61905;-75
2021/12/10 02:52:54;;;;;;;113.40;59.10;;;;;;;-1.21;100.00;97625.27;102389;1314;76843;-74
2021/12/10 02:55:22;;;;;;;115.50;60.70;;;;;;;-1.17;100.00;97620.94;102418;1310;69305;-74
2021/12/10 02:57:53;;;;;;;112.70;58.20;;;;;;;-1.12;100.00;97610.77;102453;1314;74504;-74
2021/12/10 03:00:41;;;;;;;108.10;58.00;;;;;;;-1.12;100.00;97610.80;102397;1311;61364;-75
2021/12/10 03:03:08;;;;;;;107.20;57.40;;;;;;;-1.09;100.00;97614.70;102396;1314;62168;-74
2021/12/10 03:05:35;;;;;;;112.00;58.00;;;;;;;-1.13;100.00;97621.13;102436;1314;75741;-73
2021/12/10 03:08:02;;;;;;;108.40;58.40;;;;;;;-1.16;100.00;97621.05;102398;1313;70454;-73
2021/12/10 03:10:30;;;;;;;108.30;57.00;;;;;;;-1.16;100.00;97626.82;102383;1311;73505;-74
2021/12/10 03:12:57;;;;;;;102.80;57.50;;;;;;;-1.18;100.00;97615.76;102417;1311;61423;-73
2021/12/10 03:15:27;;;;;;;110.00;57.10;;;;;;;-1.22;100.00;97605.10;102394;1314;62203;-74
2021/12/10 03:17:55;;;;;;;;;;;;;;;-1.27;100.00;97611.09;102387;1310;76568;-74
2021/12/10 03:20:25;;;;;;;104.50;57.00;;;;;;;-1.32;100.00;97611.08;102387;1310;68706;-73
2021/12/10 03:22:51;;;;;;;;;;;;;;;-1.33;100.00;97604.36;102589;1314;73197;-74
2021/12/10 03:25:18;;;;;;;109.60;56.20;;;;;;;-1.33;100.00;97597.05;102358;1314;61378;-73
2021/12/10 03:27:46;;;;;;;103.40;55.20;;;;;;;-1.28;100.00;97596.32;102394;1310;61351;-73
2021/12/10 03:30:17;;;;;;;96.60;54.20;;;;;;;-1.28;100.00;97603.28;102370;1311;74664;-74
2021/12/10 03:32:45;;;;;;;108.20;56.10;;;;;;;-1.30;100.00;97611.04;102347;1311;70318;-73
2021/12/10 03:35:28;;;;;;;109.90;57.10;;;;;;;-1.30;100.00;97611.55;102535;1311;73206;-73
2021/12/10 03:37:59;;;;;;;107.80;57.00;;;;;;;-1.30;100.00;97617.65;102363;1314;61357;-74
2021/12/10 03:40:26;;;;;;;107.30;57.10;;;;;;;-1.32;100.00;97616.17;102383;1311;61823;-74
2021/12/10 03:42:58;;;;;;;111.40;59.30;;;;;;;-1.33;100.00;97618.79;102395;1314;75231;-74
2021/12/10 03:45:28;;;;;;;114.30;60.00;;;;;;;-1.29;100.00;97616.91;102371;1313;69267;-74
2021/12/10 03:47:55;;;;;;;111.40;59.10;;;;;;;-1.28;100.00;97616.50;102411;1311;74564;-73
2021/12/10 03:50:29;;;;;;;121.90;60.90;;;;;;;-1.30;100.00;97616.06;102355;1313;61445;-73
2021/12/10 03:52:56;;;;;;;112.70;59.60;;;;;;;-1.33;100.00;97616.55;102008;1316;61815;-74
2021/12/10 03:55:23;;;;;;;111.70;59.40;;;;;;;-1.36;100.00;97621.19;102000;1314;76328;-75
2021/12/10 03:57:52;;;;;;;127.90;69.20;;;;;;;-1.38;100.00;97620.41;102409;1310;69354;-74
2021/12/10 04:00:21;;;;;;;152.40;80.40;;;;;;;-1.40;100.00;97624.14;102353;1314;74265;-74
2021/12/10 04:02:49;;;;;;;138.40;75.70;;;;;;;-1.39;100.00;97629.34;102387;1314;61396;-74
2021/12/10 04:05:17;;;;;;;101.70;53.40;;;;;;;-1.41;100.00;97634.30;102444;1313;61314;-74
2021/12/10 04:07:44;;;;;;;108.00;56.30;;;;;;;-1.47;100.00;97634.75;102491;1313;76282;-76
2021/12/10 04:10:13;;;;;;;105.50;53.80;;;;;;;-1.50;100.00;97629.96;102465;1313;69750;-74
2021/12/10 04:12:40;;;;;;;106.60;57.60;;;;;;;-1.57;100.00;97631.45;102510;1310;73392;-73
2021/12/10 04:15:08;;;;;;;106.10;55.10;;;;;;;-1.63;100.00;97633.80;102592;1314;61425;-75
2021/12/10 04:17:35;;;;;;;111.60;58.30;;;;;;;-1.67;100.00;97640.20;102181;1314;61219;-73
2021/12/10 04:20:03;;;;;;;118.20;64.00;;;;;;;-1.68;100.00;97652.10;102390;1314;76328;-74
2021/12/10 04:22:32;;;;;;;129.80;66.60;;;;;;;-1.67;100.00;97655.01;102363;1314;69897;-75
2021/12/10 04:25:00;;;;;;;121.10;64.20;;;;;;;-1.65;100.00;97659.45;102395;1310;73251;-74
2021/12/10 04:27:27;;;;;;;136.00;74.30;;;;;;;-1.63;100.00;97656.96;102144;1317;61315;-74
2021/12/10 04:29:57;;;;;;;118.90;64.20;;;;;;;-1.64;100.00;97658.39;102454;1313;61306;-73
2021/12/10 04:32:25;;;;;;;110.40;59.70;;;;;;;-1.68;100.00;97654.55;102068;1317;76478;-74
2021/12/10 04:34:53;;;;;;;131.70;70.60;;;;;;;-1.72;100.00;97655.23;102258;1317;69096;-74
2021/12/10 04:37:21;;;;;;;129.20;71.90;;;;;;;-1.72;100.00;97646.69;102549;1313;74310;-74
2021/12/10 04:39:48;;;;;;;119.40;66.80;;;;;;;-1.71;100.00;97646.84;102469;1311;61329;-74
2021/12/10 04:42:23;;;;;;;127.20;68.20;;;;;;;-1.75;100.00;97642.98;102453;1314;235948;-74
2021/12/10 04:44:55;;;;;;;130.40;69.70;;;;;;;-1.82;100.00;97646.74;102673;1310;76509;-74
2021/12/10 04:47:22;;;;;;;129.80;71.70;;;;;;;-1.90;100.00;97652.60;102437;1313;69594;-75
2021/12/10 04:49:49;;;;;;;137.30;74.60;;;;;;;-1.95;100.00;97654.35;102371;1316;73253;-75
2021/12/10 04:52:16;;;;;;;138.90;75.10;;;;;;;-1.99;100.00;97661.13;102350;1314;61342;-75
2021/12/10 04:54:43;;;;;;;134.60;74.20;;;;;;;-2.05;100.00;97657.18;102393;1314;61392;-74
2021/12/10 04:57:10;;;;;;;122.70;65.70;;;;;;;-2.13;100.00;97653.13;102400;1311;76196;-75
2021/12/10 04:59:39;;;;;;;130.40;70.00;;;;;;;-2.19;100.00;97654.74;102369;1314;69331;-74
2021/12/10 05:02:09;;;;;;;129.50;76.00;;;;;;;-2.23;100.00;97651.44;102075;1314;72759;-75
2021/12/10 05:04:37;;;;;;;147.00;83.00;;;;;;;-2.26;100.00;97649.98;102428;1314;61351;-75
2021/12/10 05:07:05;;;;;;;131.00;72.30;;;;;;;-2.26;100.00;97650.30;102434;1313;61922;-75
2021/12/10 05:09:32;;;;;;;138.50;80.10;;;;;;;-2.27;100.00;97643.92;102551;1314;74441;-75
2021/12/10 05:12:01;;;;;;;147.70;82.30;;;;;;;-2.27;100.00;97641.47;102390;1314;70219;-74
2021/12/10 05:14:30;;;;;;;136.20;76.20;;;;;;;-2.24;100.00;97641.53;102341;1314;73479;-76
2021/12/10 05:17:03;;;;;;;140.70;75.70;;;;;;;-2.22;100.00;97640.77;102415;1311;61936;-76
2021/12/10 05:19:30;;;;;;;133.60;72.50;;;;;;;-2.23;100.00;97640.27;102420;1314;61664;-74
2021/12/10 05:22:01;;;;;;;130.00;66.70;;;;;;;-2.24;100.00;97641.02;102419;1311;75209;-72
2021/12/10 05:24:30;;;;;;;126.70;67.00;;;;;;;-2.27;100.00;97645.62;102367;1313;69587;-74
2021/12/10 05:26:59;;;;;;;121.10;62.80;;;;;;;-2.28;100.00;97643.09;102512;1311;74259;-76
2021/12/10 05:29:25;;;;;;;127.00;66.00;;;;;;;-2.28;100.00;97640.95;102454;1313;61352;-76
2021/12/10 05:31:54;;;;;;;125.90;66.40;;;;;;;-2.27;100.00;97633.13;102291;1314;61314;-76
2021/12/10 05:34:21;;;;;;;123.50;66.00;;;;;;;-2.23;100.00;97631.23;102412;1313;75486;-74
2021/12/10 05:36:48;;;;;;;136.80;72.30;;;;;;;-2.18;100.00;97628.45;102389;1313;70301;-75
2021/12/10 05:39:17;;;;;;;136.60;74.30;;;;;;;-2.11;100.00;97627.31;102372;1313;73560;-73
2021/12/10 05:41:44;;;;;;;129.20;72.50;;;;;;;-2.06;100.00;97629.86;102419;1314;61330;-73
2021/12/10 05:44:11;;;;;;;138.50;75.50;;;;;;;-2.02;100.00;97626.45;102424;1313;61698;-74
2021/12/10 05:46:38;;;;;;;138.10;72.60;;;;;;;-2.01;100.00;97628.98;102344;1314;75244;-74
2021/12/10 05:49:05;;;;;;;137.50;73.90;;;;;;;-2.02;100.00;97631.17;102391;1314;69396;-74
2021/12/10 05:51:33;;;;;;;137.10;76.80;;;;;;;-2.04;100.00;97628.24;102361;1313;72924;-74
2021/12/10 05:53:59;;;;;;;144.90;81.70;;;;;;;-2.05;100.00;97630.21;102421;1313;61629;-73
2021/12/10 05:56:26;;;;;;;134.10;74.80;;;;;;;-2.03;100.00;97629.95;102399;1313;61616;-74
2021/12/10 05:58:53;;;;;;;139.20;75.70;;;;;;;-2.00;100.00;97631.73;102570;1310;75164;-74
2021/12/10 06:01:21;;;;;;;143.30;78.50;;;;;;;-1.99;100.00;97627.71;102071;1313;62084;-74
2021/12/10 06:03:52;;;;;;;147.00;81.50;;;;;;;-1.97;100.00;97630.41;102484;1314;73521;-75
2021/12/10 06:06:26;;;;;;;151.50;81.80;;;;;;;-1.90;100.00;97625.83;102512;1310;61309;-75
2021/12/10 06:08:54;;;;;;;141.60;80.40;;;;;;;-1.87;100.00;97620.83;102582;1313;61318;-74
2021/12/10 06:11:23;;;;;;;143.40;79.30;;;;;;;-1.93;100.00;97616.34;102613;1314;75290;-73
2021/12/10 06:13:50;;;;;;;140.90;79.10;;;;;;;-2.01;100.00;97621.68;102607;1313;69481;-74
2021/12/10 06:16:18;;;;;;;136.80;79.30;;;;;;;-2.06;100.00;97627.46;102653;1314;72866;-75
2021/12/10 06:18:46;;;;;;;135.60;75.90;;;;;;;-2.12;100.00;97641.95;102399;1314;61286;-74
2021/12/10 06:21:14;;;;;;;134.50;77.80;;;;;;;-2.18;100.00;97645.15;102862;1310;61196;-74
2021/12/10 06:23:41;;;;;;;141.20;77.60;;;;;;;-2.23;100.00;97644.09;102908;1314;75585;-74
2021/12/10 06:26:08;;;;;;;142.70;76.60;;;;;;;-2.27;100.00;97640.59;103213;1310;69516;-73
2021/12/10 06:28:36;;;;;;;143.30;79.30;;;;;;;-2.28;100.00;97641.15;103387;1310;73420;-72
2021/12/10 06:31:05;;;;;;;136.10;76.80;;;;;;;-2.27;100.00;97645.98;105137;1310;59987;-74
2021/12/10 06:33:32;;;;;;;149.90;80.60;;;;;;;-2.28;100.00;97648.12;104912;1313;61363;-75
2021/12/10 06:36:06;;;;;;;146.10;79.40;;;;;;;-2.27;100.00;97649.31;105169;1311;75440;-75
2021/12/10 06:38:33;;;;;;;142.80;79.50;;;;;;;-2.24;100.00;97653.19;103651;1313;70715;-76
2021/12/10 06:41:00;;;;;;;146.80;78.20;;;;;;;-2.23;100.00;97655.75;103366;1311;73627;-74
2021/12/10 06:43:27;;;;;;;152.40;83.90;;;;;;;-2.24;100.00;97660.49;103581;1313;61189;-77
2021/12/10 06:45:54;;;;;;;155.60;85.90;;;;;;;-2.22;100.00;97667.36;102939;1310;61431;-74
2021/12/10 06:48:24;;;;;;;177.70;96.60;;;;;;;-2.16;100.00;97667.16;102245;1313;75397;-74
2021/12/10 06:51:02;;;;;;;183.60;103.80;;;;;;;-2.10;100.00;97671.65;102243;1314;70374;-76
2021/12/10 06:53:30;;;;;;;162.10;93.30;;;;;;;-2.07;100.00;97671.52;101716;1317;74478;-77
2021/12/10 06:55:59;;;;;;;169.70;99.10;;;;;;;-2.06;100.00;97668.34;102466;1310;61355;-76
2021/12/10 06:58:28;;;;;;;173.60;98.10;;;;;;;-2.03;100.00;97677.13;102508;1309;61393;-74
2021/12/10 07:00:59;;;;;;;184.10;109.30;;;;;;;-1.99;100.00;97682.17;102362;1313;75483;-74
2021/12/10 07:03:29;;;;;;;187.50;111.20;;;;;;;-1.94;100.00;97688.42;102357;1314;69496;-73
2021/12/10 07:05:57;;;;;;;187.60;109.40;;;;;;;-1.90;100.00;97684.11;102455;1314;74023;-74
2021/12/10 07:08:26;;;;;;;183.70;102.60;;;;;;;-1.84;100.00;97681.45;102407;1310;61422;-75
2021/12/10 07:10:53;;;;;;;168.20;97.70;;;;;;;-1.79;100.00;97684.03;102384;1313;61630;-72
2021/12/10 07:13:20;;;;;;;179.80;103.70;;;;;;;-1.77;100.00;97685.02;102344;1314;76129;-74
2021/12/10 07:15:49;;;;;;;189.30;110.00;;;;;;;-1.75;100.00;97680.92;102346;1311;70233;-76
2021/12/10 07:18:19;;;;;;;192.90;113.20;;;;;;;-1.76;100.00;97676.79;102460;1314;74311;-75
2021/12/10 07:20:46;;;;;;;184.30;106.10;;;;;;;-1.79;100.00;97679.68;102581;1311;61295;-74
2021/12/10 07:23:13;;;;;;;183.10;108.90;;;;;;;-1.82;100.00;97676.16;102384;1311;61320;-74
2021/12/10 07:25:40;;;;;;;172.80;104.10;;;;;;;-1.83;100.00;97669.23;102385;1311;76425;-74
2021/12/10 07:28:07;;;;;;;173.80;99.10;;;;;;;-1.86;100.00;97671.08;101951;1313;70383;-75
2021/12/10 07:30:34;;;;;;;166.90;92.30;;;;;;;-1.89;100.00;97680.08;102389;1310;73535;-74
2021/12/10 07:33:01;;;;;;;168.30;97.20;;;;;;;-1.93;100.00;97680.90;102360;1310;61435;-75
2021/12/10 07:35:28;;;;;;;164.50;94.60;;;;;;;-1.98;100.00;97680.40;102417;1310;61299;-75
2021/12/10 07:37:54;;;;;;;164.10;97.30;;;;;;;-2.02;100.00;97669.43;102162;1314;75343;-75
2021/12/10 07:40:25;;;;;;;161.00;93.50;;;;;;;-2.04;100.00;97670.35;102388;1310;70840;-76
2021/12/10 07:42:52;;;;;;;158.80;93.40;;;;;;;-2.04;100.00;97671.39;102408;1314;74513;-74
2021/12/10 07:45:21;;;;;;;163.20;93.80;;;;;;;-2.00;100.00;97673.52;102355;1310;61256;-75
2021/12/10 07:47:51;;;;;;;174.40;98.10;;;;;;;-1.92;100.00;97672.52;102536;1311;61173;-75
2021/12/10 07:50:23;;;;;;;167.90;95.20;;;;;;;-1.83;100.00;97665.38;102450;1316;75238;-74
2021/12/10 07:52:54;;;;;;;167.10;93.90;;;;;;;-1.80;100.00;97662.14;102464;1311;69078;-74
2021/12/10 07:55:24;;;;;;;160.10;98.20;;;;;;;-1.82;100.00;97663.05;102462;1310;73272;-74
2021/12/10 07:57:52;;;;;;;154.30;90.70;;;;;;;-1.82;100.00;97663.60;102387;1310;61418;-73
2021/12/10 08:00:21;;;;;;;186.80;103.70;;;;;;;-1.82;100.00;97670.05;102426;1313;61937;-74
2021/12/10 08:02:48;;;;;;;201.40;105.80;;;;;;;-1.76;100.00;97674.36;102510;1311;75231;-74
2021/12/10 08:05:17;;;;;;;202.60;105.60;;;;;;;-1.72;100.00;97678.20;102500;1311;70606;-74
2021/12/10 08:07:45;;;;;;;202.00;103.20;;;;;;;-1.69;100.00;97676.16;102380;1310;74021;-75
2021/12/10 08:10:13;;;;;;;157.10;92.80;;;;;;;-1.67;100.00;97675.39;102377;1310;61379;-75
2021/12/10 08:12:40;;;;;;;155.00;88.30;;;;;;;-1.66;100.00;97675.54;102211;1313;61512;-74
2021/12/10 08:15:08;;;;;;;159.60;90.30;;;;;;;-1.62;99.99;97677.46;102441;1313;75009;-74
2021/12/10 08:17:35;;;;;;;161.00;91.80;;;;;;;-1.60;99.93;97686.80;102454;1311;69363;-76
2021/12/10 08:20:06;;;;;;;151.50;90.10;;;;;;;-1.56;99.96;97689.92;102383;1310;73239;-74
2021/12/10 08:22:33;;;;;;;151.70;91.30;;;;;;;-1.52;99.85;97689.63;102431;1310;61269;-75
2021/12/10 08:25:00;;;;;;;155.10;93.50;;;;;;;-1.47;99.97;97690.63;102435;1310;61387;-74
2021/12/10 08:27:27;;;;;;;164.50;99.40;;;;;;;-1.37;100.00;97691.98;101991;1311;74703;-75
2021/12/10 08:29:54;;;;;;;178.60;104.00;;;;;;;-1.25;100.00;97694.82;102479;1310;69570;-74
2021/12/10 08:32:22;;;;;;;176.90;106.90;;;;;;;-1.15;100.00;97695.79;102394;1310;73966;-75
2021/12/10 08:34:49;;;;;;;157.10;98.00;;;;;;;-1.08;100.00;97691.50;102438;1310;61310;-75
2021/12/10 08:37:16;;;;;;;163.50;97.20;;;;;;;-1.01;100.00;97687.88;102389;1309;61418;-74
2021/12/10 08:39:43;;;;;;;158.20;96.80;;;;;;;-0.91;100.00;97693.57;102244;1314;73354;-74
2021/12/10 08:42:13;;;;;;;176.10;108.90;;;;;;;-0.85;99.89;97688.79;102430;1310;70312;-74
2021/12/10 08:44:42;;;;;;;;;;;;;;;-0.76;99.96;97688.09;102465;1311;72639;-75
2021/12/10 08:47:12;;;;;;;168.60;104.20;;;;;;;-0.66;100.00;97686.98;102416;1310;61418;-75
2021/12/10 08:49:40;;;;;;;169.80;103.90;;;;;;;-0.58;99.79;97683.48;102481;1314;61405;-75
2021/12/10 08:52:08;;;;;;;177.20;106.00;;;;;;;-0.48;99.80;97678.48;102502;1310;77007;-75
2021/12/10 08:54:36;;;;;;;168.90;105.80;;;;;;;-0.37;99.83;97673.98;102407;1310;69568;-75
2021/12/10 08:57:05;;;;;;;168.60;102.50;;;;;;;-0.27;99.89;97678.44;102497;1310;72944;-75
2021/12/10 08:59:34;;;;;;;165.90;105.10;;;;;;;-0.16;99.86;97678.33;102507;1311;61402;-75
2021/12/10 09:02:03;;;;;;;163.60;102.50;;;;;;;-0.07;99.76;97680.30;102707;1313;61285;-74
2021/12/10 09:04:33;;;;;;;164.50;103.90;;;;;;;0.00;99.29;97680.91;102651;1310;75377;-74
2021/12/10 09:07:06;;;;;;;162.30;99.60;;;;;;;0.01;99.09;97677.17;102616;1311;69596;-75
2021/12/10 09:09:35;;;;;;;157.80;100.90;;;;;;;0.03;99.00;97675.86;102465;1310;73414;-76
2021/12/10 09:12:07;;;;;;;146.10;93.60;;;;;;;0.10;99.16;97679.23;102559;1310;61299;-74
2021/12/10 09:14:41;;;;;;;145.50;92.60;;;;;;;0.16;98.81;97678.42;102451;1310;61286;-75
2021/12/10 09:17:09;;;;;;;144.20;94.40;;;;;;;0.24;98.55;97678.06;102421;1311;76805;-74
2021/12/10 09:19:39;;;;;;;155.60;95.80;;;;;;;0.42;98.54;97683.52;101979;1314;67905;-74
2021/12/10 09:22:07;;;;;;;;;;;;;;;0.65;98.40;97676.98;102453;1311;73230;-73
2021/12/10 09:24:36;;;;;;;144.30;91.20;;;;;;;0.84;98.08;97675.37;102420;1311;61373;-75
2021/12/10 09:27:03;;;;;;;141.70;91.90;;;;;;;1.05;97.86;97675.91;102398;1310;61410;-75
2021/12/10 09:29:35;;;;;;;141.60;93.60;;;;;;;1.24;97.65;97673.90;102416;1310;76204;-75
2021/12/10 09:32:09;;;;;;;143.80;91.60;;;;;;;1.43;97.38;97662.95;102417;1311;69444;-73
2021/12/10 09:34:36;;;;;;;139.20;89.70;;;;;;;1.55;97.07;97654.64;102388;1314;74142;-75
2021/12/10 09:37:04;;;;;;;131.70;88.60;;;;;;;1.70;97.06;97651.78;102112;1313;61462;-74
2021/12/10 09:39:32;;;;;;;149.70;92.70;;;;;;;1.83;96.96;97648.48;102460;1310;61438;-75
2021/12/10 09:42:00;;;;;;;142.40;93.60;;;;;;;1.97;96.80;97645.91;102450;1310;75199;-75
2021/12/10 09:44:27;;;;;;;177.10;109.20;;;;;;;2.10;96.58;97643.45;102375;1313;69566;-73
2021/12/10 09:46:56;;;;;;;147.90;95.20;;;;;;;2.22;96.19;97643.89;102376;1314;74584;-74
2021/12/10 09:49:24;;;;;;;134.80;89.30;;;;;;;2.27;96.01;97644.16;102436;1314;61432;-74
2021/12/10 09:52:00;;;;;;;170.70;104.10;;;;;;;2.39;96.16;97643.98;102431;1314;61178;-73
2021/12/10 09:54:30;;;;;;;184.00;116.00;;;;;;;2.52;95.95;97634.30;102380;1311;75505;-70
2021/12/10 09:57:04;;;;;;;148.00;101.90;;;;;;;2.63;95.65;97630.89;102510;1310;67760;-74
2021/12/10 09:59:33;;;;;;;131.70;92.40;;;;;;;2.73;95.67;97626.84;102418;1310;73254;-73
2021/12/10 10:02:00;;;;;;;124.40;85.10;;;;;;;2.80;95.33;97623.58;102480;1310;61348;-74
2021/12/10 10:04:33;;;;;;;124.40;84.90;;;;;;;2.83;95.13;97622.02;102502;1310;61250;-74
2021/12/10 10:07:07;;;;;;;125.00;82.10;;;;;;;2.81;94.85;97619.86;102430;1310;75372;-74
2021/12/10 10:09:34;;;;;;;126.30;80.80;;;;;;;2.80;94.62;97614.85;102367;1308;69458;-78
2021/12/10 10:12:07;;;;;;;126.50;83.10;;;;;;;2.76;94.55;97617.16;102392;1310;73826;-74
2021/12/10 10:14:36;;;;;;;125.50;83.20;;;;;;;2.74;94.41;97619.05;102391;1314;61450;-74
2021/12/10 10:17:04;;;;;;;130.30;86.50;;;;;;;2.75;94.60;97614.77;102426;1311;61225;-74
2021/12/10 10:19:31;;;;;;;123.50;82.10;;;;;;;2.82;94.71;97611.54;102373;1314;75369;-74
2021/12/10 10:21:58;;;;;;;137.80;91.10;;;;;;;2.90;94.60;97610.05;102451;1311;69430;-74
2021/12/10 10:24:28;;;;;;;129.30;83.30;;;;;;;2.96;94.15;97615.49;101990;1313;73712;-74
2021/12/10 10:27:04;;;;;;;130.20;89.90;;;;;;;3.00;94.01;97612.47;102446;1310;61304;-73
2021/12/10 10:29:35;;;;;;;139.30;96.10;;;;;;;3.08;93.98;97607.60;102460;1310;61311;-74
2021/12/10 10:32:21;;;;;;;146.50;96.30;;;;;;;3.17;93.88;97601.99;102419;1311;75170;-74
2021/12/10 10:34:58;;;;;;;161.60;99.60;;;;;;;3.32;93.96;97597.22;102055;1313;69162;-74
2021/12/10 10:37:24;;;;;;;161.00;102.00;;;;;;;3.43;93.57;97599.19;102441;1311;72769;-74
2021/12/10 10:39:51;;;;;;;145.50;90.40;;;;;;;3.48;93.44;97601.00;102367;1311;61421;-74
2021/12/10 10:42:24;;;;;;;163.30;98.90;;;;;;;3.45;93.48;97605.90;102020;1314;61519;-74
2021/12/10 10:44:54;;;;;;;134.20;84.50;;;;;;;3.42;93.25;97610.31;102540;1314;75434;-74
2021/12/10 10:47:23;;;;;;;135.20;84.50;;;;;;;3.39;93.15;97610.17;102599;1311;68310;-75
2021/12/10 10:49:58;;;;;;;125.70;79.90;;;;;;;3.37;93.18;97612.05;102387;1310;74409;-75
2021/12/10 10:52:28;;;;;;;111.60;73.20;;;;;;;3.35;93.29;97606.69;102417;1310;61649;-74
2021/12/10 10:55:34;;;;;;;97.80;69.00;;;;;;;3.33;93.10;97607.38;102440;1311;61347;-73
2021/12/10 10:58:12;;;;;;;111.80;72.40;;;;;;;3.32;93.21;97606.40;102137;1314;73403;-74
2021/12/10 11:01:24;;;;;;;118.80;77.40;;;;;;;3.27;92.91;97606.98;102427;1311;70502;-73
2021/12/10 11:03:58;;;;;;;102.00;68.20;;;;;;;3.28;92.85;97606.56;101788;1319;73631;-72
2021/12/10 11:06:31;;;;;;;102.10;69.00;;;;;;;3.36;92.81;97607.01;101799;1322;61416;-71
2021/12/10 11:09:09;;;;;;;102.70;70.00;;;;;;;3.54;92.83;97606.80;101778;1319;61352;-70
2021/12/10 11:11:41;;;;;;;100.70;68.70;;;;;;;3.75;92.72;97609.70;101791;1319;76734;-70
2021/12/10 11:14:18;;;;;;;86.00;61.20;;;;;;;3.96;92.38;97614.41;101752;1319;69882;-71
2021/12/10 11:16:48;;;;;;;75.10;50.90;;;;;;;4.13;91.86;97616.70;101773;1320;73249;-71
2021/12/10 11:19:18;;;;;;;69.90;47.90;;;;;;;4.14;91.67;97613.08;101470;1319;61603;-70
2021/12/10 11:22:03;;;;;;;47.20;33.40;;;;;;;4.22;91.94;97614.72;101507;1322;61450;-71
2021/12/10 11:24:45;;;;;;;28.20;20.00;;;;;;;4.32;91.91;97612.64;101738;1319;75823;-69